createdAt,value
2022-11-29T00:02:09.414Z,4.61
2022-11-29T00:04:37.589Z,4.79
2022-11-29T00:07:05.874Z,4.70
2022-11-29T00:09:32.761Z,4.67
2022-11-29T00:12:14.440Z,4.70
2022-11-29T00:14:42.075Z,4.73
2022-11-29T00:17:09.450Z,4.71
2022-11-29T00:19:37.499Z,4.66
2022-11-29T00:22:05.834Z,4.62
2022-11-29T00:24:32.978Z,4.57
2022-11-29T00:27:01.230Z,4.56
2022-11-29T00:29:29.961Z,4.44
2022-11-29T00:31:56.986Z,4.38
2022-11-29T00:34:23.977Z,4.28
2022-11-29T00:36:50.931Z,4.19
2022-11-29T00:39:19.312Z,4.21
2022-11-29T00:41:46.348Z,4.17
2022-11-29T00:44:19.693Z,4.22
2022-11-29T00:46:47.124Z,4.33
2022-11-29T00:49:14.258Z,4.32
2022-11-29T00:51:41.208Z,4.26
2022-11-29T00:54:08.148Z,4.18
2022-11-29T00:56:36.459Z,4.24
2022-11-29T00:59:03.373Z,4.33
2022-11-29T01:01:30.316Z,4.19
2022-11-29T01:03:57.290Z,4.18
2022-11-29T01:06:24.202Z,4.28
2022-11-29T01:08:51.416Z,4.26
2022-11-29T01:11:20.877Z,4.28
2022-11-29T01:13:50.361Z,4.37
2022-11-29T01:16:17.805Z,4.55
2022-11-29T01:18:45.131Z,4.52
2022-11-29T01:21:14.380Z,4.48
2022-11-29T01:23:42.444Z,4.52
2022-11-29T01:26:11.879Z,4.49
2022-11-29T01:28:40.270Z,4.36
2022-11-29T01:31:09.479Z,4.23
2022-11-29T01:33:37.180Z,4.06
2022-11-29T01:36:05.846Z,4.07
2022-11-29T01:38:32.971Z,4.07
2022-11-29T01:41:02.116Z,4.03
2022-11-29T01:43:29.382Z,3.97
2022-11-29T01:45:56.648Z,3.87
2022-11-29T01:48:28.623Z,3.81
2022-11-29T01:51:00.271Z,3.80
2022-11-29T01:53:28.488Z,3.81
2022-11-29T01:56:01.364Z,3.83
2022-11-29T01:58:29.216Z,3.78
2022-11-29T02:00:57.155Z,3.84
2022-11-29T02:03:25.538Z,3.82
2022-11-29T02:05:53.821Z,3.79
2022-11-29T02:08:26.226Z,3.84
2022-11-29T02:11:22.454Z,3.89
2022-11-29T02:14:02.009Z,3.76
2022-11-29T02:16:37.557Z,3.82
2022-11-29T02:19:21.606Z,3.93
2022-11-29T02:21:53.258Z,3.99
2022-11-29T02:24:57.933Z,4.04
2022-11-29T02:27:58.001Z,4.04
2022-11-29T02:31:02.012Z,3.84
2022-11-29T02:33:59.460Z,3.63
2022-11-29T02:36:57.331Z,3.56
2022-11-29T02:39:53.287Z,3.51
2022-11-29T02:42:56.526Z,3.50
2022-11-29T02:45:38.580Z,3.38
2022-11-29T02:48:29.811Z,3.40
2022-11-29T02:51:05.917Z,3.44
2022-11-29T02:53:38.677Z,3.49
2022-11-29T02:56:13.363Z,3.40
2022-11-29T02:58:47.674Z,3.33
2022-11-29T03:01:20.292Z,3.23
2022-11-29T03:03:55.407Z,3.09
2022-11-29T03:06:38.684Z,3.09
2022-11-29T03:09:12.301Z,3.14
2022-11-29T03:11:48.013Z,3.21
2022-11-29T03:14:23.533Z,3.15
2022-11-29T03:17:00.801Z,3.19
2022-11-29T03:19:47.417Z,3.18
2022-11-29T03:22:30.035Z,3.18
2022-11-29T03:25:03.160Z,3.30
2022-11-29T03:27:38.625Z,3.23
2022-11-29T03:30:08.759Z,3.21
2022-11-29T03:32:45.591Z,3.23
2022-11-29T03:35:18.839Z,3.19
2022-11-29T03:37:55.381Z,3.15
2022-11-29T03:40:28.137Z,3.24
2022-11-29T03:43:00.823Z,3.23
2022-11-29T03:45:32.896Z,3.32
2022-11-29T03:48:09.939Z,3.25
2022-11-29T03:50:41.504Z,3.27
2022-11-29T03:53:17.964Z,3.34
2022-11-29T03:56:42.566Z,3.37
2022-11-29T03:59:22.849Z,3.42
2022-11-29T04:02:22.464Z,3.41
2022-11-29T04:05:19.788Z,3.41
2022-11-29T04:08:08.544Z,3.49
2022-11-29T04:11:05.624Z,3.49
2022-11-29T04:14:14.171Z,3.50
2022-11-29T04:17:22.205Z,3.56
2022-11-29T04:20:36.294Z,3.57
2022-11-29T04:23:41.725Z,3.50
2022-11-29T04:30:10.037Z,3.52
2022-11-29T04:33:29.598Z,3.54
2022-11-29T04:36:28.688Z,3.62
2022-11-29T04:39:26.279Z,3.67
2022-11-29T04:42:39.447Z,3.70
2022-11-29T04:45:54.030Z,3.63
2022-11-29T04:48:54.779Z,3.67
2022-11-29T04:52:02.964Z,3.85
2022-11-29T04:54:40.269Z,3.89
2022-11-29T04:57:23.540Z,3.78
2022-11-29T05:00:12.012Z,3.75
2022-11-29T05:02:49.044Z,3.71
2022-11-29T05:05:32.538Z,3.70
2022-11-29T05:08:33.429Z,3.63
2022-11-29T05:11:50.318Z,3.59
2022-11-29T05:14:28.648Z,3.59
2022-11-29T05:17:24.541Z,3.59
2022-11-29T05:20:33.680Z,3.53
2022-11-29T05:23:25.844Z,3.34
2022-11-29T05:26:05.910Z,3.28
2022-11-29T05:28:56.347Z,3.30
2022-11-29T05:31:47.189Z,3.29
2022-11-29T05:34:42.559Z,3.34
2022-11-29T05:37:25.822Z,3.33
2022-11-29T05:40:18.887Z,3.35
2022-11-29T05:43:04.425Z,3.40
2022-11-29T05:45:37.046Z,3.40
2022-11-29T05:48:13.678Z,3.36
2022-11-29T05:50:48.046Z,3.19
2022-11-29T05:53:24.908Z,3.17
2022-11-29T05:56:03.294Z,3.11
2022-11-29T05:58:40.771Z,3.11
2022-11-29T06:01:18.460Z,3.20
2022-11-29T06:03:55.980Z,3.23
2022-11-29T06:06:33.515Z,3.27
2022-11-29T06:09:33.969Z,3.21
2022-11-29T06:12:46.222Z,3.13
2022-11-29T06:16:17.331Z,3.07
2022-11-29T06:23:59.479Z,3.13
2022-11-29T06:31:20.369Z,3.06
2022-11-29T10:25:08.664Z,5.29
2022-11-29T10:27:39.914Z,5.30
2022-11-29T10:30:13.598Z,5.38
2022-11-29T10:32:41.275Z,5.33
2022-11-29T10:35:13.541Z,5.38
2022-11-29T10:40:59.327Z,5.54
2022-11-29T10:43:27.768Z,5.48
2022-11-29T10:45:56.280Z,5.41
2022-11-29T10:48:28.719Z,5.52
2022-11-29T10:56:30.431Z,5.70
2022-11-29T10:59:03.293Z,5.72
2022-11-29T11:01:31.496Z,5.87
2022-11-29T11:04:00.735Z,5.93
2022-11-29T11:06:41.541Z,5.98
2022-11-29T11:09:20.235Z,6.20
2022-11-29T11:11:52.879Z,6.30
2022-11-29T11:14:23.328Z,6.24
2022-11-29T11:16:50.776Z,6.32
2022-11-29T11:19:35.500Z,6.37
2022-11-29T11:22:04.139Z,6.33
2022-11-29T11:24:33.304Z,6.36
2022-11-29T11:27:01.491Z,6.51
2022-11-29T11:29:37.817Z,6.47
2022-11-29T11:32:07.617Z,6.49
2022-11-29T11:34:36.613Z,6.53
2022-11-29T11:37:21.185Z,6.51
2022-11-29T11:39:49.891Z,6.58
2022-11-29T11:42:37.435Z,6.75
2022-11-29T11:45:23.119Z,6.72
2022-11-29T11:47:52.392Z,6.76
2022-11-29T11:50:28.196Z,6.65
2022-11-29T11:52:57.546Z,6.72
2022-11-29T11:55:33.706Z,6.80
2022-11-29T11:58:13.822Z,6.69
2022-11-29T12:01:03.397Z,6.72
2022-11-29T12:03:45.136Z,6.75
2022-11-29T12:06:26.123Z,6.87
2022-11-29T12:08:57.659Z,6.85
2022-11-29T12:11:26.463Z,6.94
2022-11-29T12:13:59.213Z,6.98
2022-11-29T12:16:34.624Z,6.94
2022-11-29T12:19:07.340Z,6.95
2022-11-29T12:21:40.489Z,7.02
2022-11-29T12:24:20.483Z,7.09
2022-11-29T12:27:03.143Z,7.10
2022-11-29T12:29:34.330Z,7.10
2022-11-29T12:32:14.246Z,7.21
2022-11-29T12:34:54.371Z,7.16
2022-11-29T12:37:29.071Z,7.16
2022-11-29T12:40:02.293Z,7.08
2022-11-29T12:42:40.997Z,7.05
2022-11-29T12:45:29.820Z,7.16
2022-11-29T12:48:10.192Z,7.21
2022-11-29T12:50:45.436Z,7.31
2022-11-29T12:53:27.546Z,7.28
2022-11-29T12:56:03.663Z,7.26
2022-11-29T12:58:45.470Z,7.33
2022-11-29T13:01:19.602Z,7.23
2022-11-29T13:03:58.770Z,7.26
2022-11-29T13:06:33.089Z,7.26
2022-11-29T13:09:17.754Z,7.31
2022-11-29T13:11:51.328Z,7.36
2022-11-29T13:14:43.719Z,7.12
2022-11-29T13:17:26.377Z,7.01
2022-11-29T13:19:58.545Z,7.05
2022-11-29T13:22:30.789Z,7.06
2022-11-29T13:25:01.505Z,6.77
2022-11-29T13:27:33.204Z,6.81
2022-11-29T13:30:01.467Z,6.89
2022-11-29T13:32:36.215Z,6.79
2022-11-29T13:35:09.357Z,6.95
2022-11-29T13:37:42.161Z,6.99
2022-11-29T13:40:23.658Z,7.08
2022-11-29T13:42:58.968Z,7.18
2022-11-29T13:45:34.363Z,7.09
2022-11-29T13:48:24.915Z,7.04
2022-11-29T13:50:57.043Z,7.12
2022-11-29T13:53:26.198Z,7.03
2022-11-29T13:56:02.769Z,6.91
2022-11-29T13:58:37.331Z,7.00
2022-11-29T14:01:08.502Z,7.07
2022-11-29T14:03:38.887Z,6.89
2022-11-29T14:06:13.996Z,7.20
2022-11-29T14:09:17.431Z,7.09
2022-11-29T14:11:38.099Z,7.19
2022-11-29T14:14:08.641Z,7.16
2022-11-29T14:16:39.261Z,7.20
2022-11-29T14:19:26.582Z,7.14
2022-11-29T14:22:22.139Z,6.93
2022-11-29T14:25:49.744Z,6.63
2022-11-29T14:28:31.600Z,6.72
2022-11-29T14:31:01.588Z,6.79
2022-11-29T14:34:00.535Z,6.71
2022-11-29T14:36:51.664Z,6.59
2022-11-29T14:39:31.735Z,6.45
2022-11-29T14:42:14.636Z,6.64
2022-11-29T14:44:48.444Z,6.69
2022-11-29T14:47:24.320Z,6.62
2022-11-29T14:49:54.084Z,6.52
2022-11-29T14:52:29.300Z,6.69
2022-11-29T14:55:05.420Z,6.52
2022-11-29T14:58:15.904Z,6.41
2022-11-29T15:01:08.181Z,6.40
2022-11-29T15:03:43.918Z,6.36
2022-11-29T15:06:15.649Z,6.42
2022-11-29T15:08:51.906Z,6.41
2022-11-29T15:11:30.328Z,6.36
2022-11-29T15:14:04.479Z,6.29
2022-11-29T15:16:54.051Z,6.21
2022-11-29T15:19:42.569Z,6.18
2022-11-29T15:22:16.079Z,6.16
2022-11-29T15:24:54.637Z,6.06
2022-11-29T15:27:23.263Z,6.01
2022-11-29T15:29:50.548Z,6.02
2022-11-29T15:32:23.033Z,6.05
2022-11-29T15:34:51.919Z,5.99
2022-11-29T15:37:23.798Z,5.97
2022-11-29T15:40:02.490Z,5.89
2022-11-29T15:42:38.822Z,5.86
2022-11-29T15:45:30.336Z,5.86
2022-11-29T15:48:12.667Z,5.85
2022-11-29T15:50:42.872Z,5.84
2022-11-29T15:53:16.437Z,5.83
2022-11-29T15:55:44.058Z,5.82
2022-11-29T15:58:14.071Z,5.82
2022-11-29T16:00:42.387Z,5.83
2022-11-29T16:03:19.789Z,5.75
2022-11-29T16:05:52.524Z,5.80
2022-11-29T16:08:21.220Z,5.83
2022-11-29T16:10:52.971Z,5.76
2022-11-29T16:13:39.861Z,5.76
2022-11-29T16:16:11.882Z,5.74
2022-11-29T16:18:41.260Z,5.78
2022-11-29T16:21:22.811Z,5.75
2022-11-29T16:23:49.711Z,5.73
2022-11-29T16:26:19.519Z,5.71
2022-11-29T16:28:49.861Z,5.70
2022-11-29T16:31:18.275Z,5.76
2022-11-29T16:33:47.539Z,5.79
2022-11-29T16:36:17.555Z,5.78
2022-11-29T17:53:47.611Z,5.09
2022-11-29T17:56:18.061Z,5.11
2022-11-29T18:04:41.407Z,5.01
2022-11-29T18:07:08.197Z,5.03
2022-11-29T18:10:15.666Z,4.99
2022-11-29T18:20:59.348Z,5.03
2022-11-29T18:23:30.097Z,4.94
2022-11-29T18:26:00.098Z,4.87
2022-11-29T18:28:27.322Z,4.86
2022-11-29T18:30:54.674Z,4.83
2022-11-29T18:33:21.607Z,4.86
2022-11-29T18:35:48.619Z,4.78
2022-11-29T18:38:16.551Z,4.77
2022-11-29T18:40:47.286Z,4.69
2022-11-29T18:43:17.221Z,4.70
2022-11-29T18:45:44.074Z,4.66
2022-11-29T18:48:10.980Z,4.68
2022-11-29T18:50:37.890Z,4.72
2022-11-29T18:53:04.747Z,4.71
2022-11-29T18:55:31.553Z,4.74
2022-11-29T18:57:58.451Z,4.68
2022-11-29T19:00:26.755Z,4.70
2022-11-29T19:02:54.080Z,4.74
2022-11-29T19:05:20.948Z,4.72
2022-11-29T19:07:48.034Z,4.69
2022-11-29T19:10:15.058Z,4.73
2022-11-29T19:12:41.808Z,4.70
2022-11-29T19:15:09.802Z,4.77
2022-11-29T19:17:42.968Z,4.84
2022-11-29T19:20:11.725Z,4.90
2022-11-29T19:22:38.583Z,4.87
2022-11-29T19:25:06.357Z,4.82
2022-11-29T19:27:33.309Z,4.76
2022-11-29T19:30:00.134Z,4.74
2022-11-29T19:32:26.946Z,4.76
2022-11-29T19:34:56.694Z,4.77
2022-11-29T19:37:23.530Z,4.77
2022-11-29T19:39:50.386Z,4.75
2022-11-29T19:42:17.293Z,4.75
2022-11-29T19:45:15.346Z,4.74
2022-11-29T19:47:31.064Z,4.66
2022-11-29T19:50:02.319Z,4.69
2022-11-29T19:52:29.735Z,4.66
2022-11-29T19:54:57.556Z,4.62
2022-11-29T19:57:24.354Z,4.66
2022-11-29T19:59:51.150Z,4.70
2022-11-29T20:02:18.131Z,4.63
2022-11-29T20:04:45.718Z,4.64
2022-11-29T20:07:13.886Z,4.66
2022-11-29T20:09:40.691Z,4.65
2022-11-29T20:12:07.590Z,4.60
2022-11-29T20:14:34.411Z,4.62
2022-11-29T20:17:01.230Z,4.66
2022-11-29T20:19:28.066Z,4.65
2022-11-29T20:21:55.011Z,4.67
2022-11-29T20:24:23.279Z,4.63
2022-11-29T20:26:50.154Z,4.65
2022-11-29T20:29:17.306Z,4.69
2022-11-29T20:31:50.038Z,4.70
2022-11-29T20:34:18.539Z,4.61
2022-11-29T20:37:00.762Z,4.63
2022-11-29T20:39:38.076Z,4.54
2022-11-29T20:42:52.874Z,4.56
2022-11-29T20:45:20.223Z,4.57
2022-11-29T20:47:53.307Z,4.64
2022-11-29T20:50:23.697Z,4.59
2022-11-29T20:53:01.929Z,4.64
2022-11-29T20:55:30.165Z,4.67
2022-11-29T20:57:57.012Z,4.65
2022-11-29T21:00:24.442Z,4.66
2022-11-29T21:02:51.248Z,4.67
2022-11-29T21:05:18.494Z,4.66
2022-11-29T21:07:46.694Z,4.69
2022-11-29T21:10:15.509Z,4.61
2022-11-29T21:12:45.740Z,4.59
2022-11-29T21:15:13.819Z,4.64
2022-11-29T21:17:41.432Z,4.65
2022-11-29T21:20:09.662Z,4.67
2022-11-29T21:22:46.976Z,4.72
2022-11-29T21:25:21.487Z,4.75
2022-11-29T21:27:52.345Z,4.80
2022-11-29T21:30:22.085Z,4.81
2022-11-29T21:32:49.632Z,4.85
2022-11-29T21:35:17.365Z,4.82
2022-11-29T21:37:44.811Z,4.77
2022-11-29T21:40:14.147Z,4.83
2022-11-29T21:42:41.230Z,4.76
2022-11-29T21:45:15.207Z,4.85
2022-11-29T21:47:43.016Z,4.89
2022-11-29T21:50:11.044Z,4.90
2022-11-29T21:52:38.047Z,4.92
2022-11-29T21:55:05.805Z,4.92
2022-11-29T21:57:32.602Z,4.93
2022-11-29T21:59:59.432Z,4.96
2022-11-29T22:02:27.664Z,4.95
2022-11-29T22:04:54.591Z,4.92
2022-11-29T22:07:22.142Z,4.99
2022-11-29T22:09:49.022Z,4.92
2022-11-29T22:12:33.258Z,4.96
2022-11-29T22:15:01.346Z,4.94
2022-11-29T22:17:29.585Z,5.01
2022-11-29T22:19:56.386Z,5.07
2022-11-29T22:22:27.070Z,5.08
2022-11-29T22:24:54.874Z,5.12
2022-11-29T22:27:21.667Z,5.07
2022-11-29T22:29:48.920Z,5.11
2022-11-29T22:32:15.790Z,5.07
2022-11-29T22:34:44.200Z,5.08
2022-11-29T22:37:12.459Z,5.07
2022-11-29T22:39:39.298Z,5.09
2022-11-29T22:42:06.104Z,5.10
2022-11-29T22:44:32.911Z,5.09
2022-11-29T22:46:59.740Z,5.10
2022-11-29T22:49:26.761Z,5.11
2022-11-29T22:51:54.975Z,5.14
2022-11-29T22:54:21.816Z,5.13
2022-11-29T22:56:48.800Z,5.15
2022-11-29T22:59:15.705Z,5.14
2022-11-29T23:01:42.933Z,5.17
2022-11-29T23:04:11.737Z,5.20
2022-11-29T23:06:40.828Z,5.19
2022-11-29T23:09:15.179Z,5.15
2022-11-29T23:11:42.590Z,5.16
2022-11-29T23:14:09.834Z,5.18
2022-11-29T23:16:36.876Z,5.17
2022-11-29T23:19:04.028Z,5.20
2022-11-29T23:21:32.591Z,5.21
2022-11-29T23:24:00.962Z,5.24
2022-11-29T23:26:31.264Z,5.28
2022-11-29T23:28:58.772Z,5.25
2022-11-29T23:31:25.829Z,5.28
2022-11-29T23:33:52.836Z,5.24
2022-11-29T23:36:19.596Z,5.31
2022-11-29T23:38:46.679Z,5.32
2022-11-29T23:41:13.678Z,5.32
2022-11-29T23:43:42.230Z,5.35
2022-11-29T23:46:10.737Z,5.33
2022-11-29T23:48:37.835Z,5.31
2022-11-29T23:51:04.985Z,5.30
2022-11-29T23:53:32.567Z,5.33
2022-11-29T23:56:00.773Z,5.33
2022-11-29T23:58:29.312Z,5.35
